createdAt,value
2023-01-02T00:00:00.818Z,899.6
2023-01-02T00:01:00.712Z,899.6
2023-01-02T00:02:00.700Z,899.6
2023-01-02T00:03:00.700Z,899.6
2023-01-02T00:04:00.692Z,899.6
2023-01-02T00:05:00.622Z,899.5
2023-01-02T00:06:00.796Z,899.6
2023-01-02T00:07:00.742Z,899.5
2023-01-02T00:08:00.666Z,899.5
2023-01-02T00:09:00.739Z,899.5
2023-01-02T00:10:00.862Z,899.6
2023-01-02T00:11:00.685Z,899.6
2023-01-02T00:12:00.870Z,899.5
2023-01-02T00:13:00.698Z,899.5
2023-01-02T00:14:00.649Z,899.5
2023-01-02T00:15:00.620Z,899.5
2023-01-02T00:16:00.707Z,899.5
2023-01-02T00:17:00.992Z,899.4
2023-01-02T00:18:00.943Z,899.4
2023-01-02T00:19:00.702Z,899.4
2023-01-02T00:20:00.719Z,899.4
2023-01-02T00:21:00.639Z,899.4
2023-01-02T00:22:00.598Z,899.4
2023-01-02T00:23:00.667Z,899.4
2023-01-02T00:24:00.896Z,899.4
2023-01-02T00:25:00.628Z,899.4
2023-01-02T00:26:00.633Z,899.4
2023-01-02T00:27:00.641Z,899.4
2023-01-02T00:28:00.605Z,899.4
2023-01-02T00:29:00.638Z,899.4
2023-01-02T00:30:00.687Z,899.4
2023-01-02T00:31:00.675Z,899.4
2023-01-02T00:32:00.733Z,899.3
2023-01-02T00:33:00.649Z,899.3
2023-01-02T00:34:00.606Z,899.3
2023-01-02T00:35:00.644Z,899.3
2023-01-02T00:36:00.732Z,899.3
2023-01-02T00:37:00.615Z,899.3
2023-01-02T00:38:00.629Z,899.3
2023-01-02T00:39:00.633Z,899.3
2023-01-02T00:40:00.625Z,899.3
2023-01-02T00:41:00.609Z,899.3
2023-01-02T00:42:00.732Z,899.4
2023-01-02T00:43:00.693Z,899.4
2023-01-02T00:44:00.676Z,899.3
2023-01-02T00:45:00.608Z,899.4
2023-01-02T00:46:03.607Z,899.4
2023-01-02T00:47:00.877Z,899.4
2023-01-02T00:48:00.879Z,899.3
2023-01-02T00:49:00.711Z,899.3
2023-01-02T00:50:00.655Z,899.3
2023-01-02T00:51:00.641Z,899.3
2023-01-02T00:52:00.779Z,899.3
2023-01-02T00:53:00.666Z,899.3
2023-01-02T00:54:00.861Z,899.3
2023-01-02T00:55:00.683Z,899.4
2023-01-02T00:56:00.661Z,899.4
2023-01-02T00:57:00.595Z,899.4
2023-01-02T00:58:00.612Z,899.4
2023-01-02T00:59:00.615Z,899.4
2023-01-02T01:00:00.792Z,899.3
2023-01-02T01:01:00.637Z,899.3
2023-01-02T01:02:01.065Z,899.3
2023-01-02T01:03:00.733Z,899.3
2023-01-02T01:04:00.632Z,899.3
2023-01-02T01:05:00.638Z,899.3
2023-01-02T01:06:00.705Z,899.3
2023-01-02T01:07:00.631Z,899.3
2023-01-02T01:08:00.626Z,899.3
2023-01-02T01:09:00.662Z,899.3
2023-01-02T01:10:00.616Z,899.3
2023-01-02T01:11:00.570Z,899.3
2023-01-02T01:12:04.687Z,899.3
2023-01-02T01:13:00.607Z,899.2
2023-01-02T01:14:00.602Z,899.2
2023-01-02T01:15:00.578Z,899.2
2023-01-02T01:16:00.693Z,899.2
2023-01-02T01:17:00.831Z,899.2
2023-01-02T01:18:00.734Z,899.2
2023-01-02T01:19:00.626Z,899.2
2023-01-02T01:20:00.587Z,899.2
2023-01-02T01:21:00.606Z,899.2
2023-01-02T01:22:00.654Z,899.2
2023-01-02T01:23:00.633Z,899.2
2023-01-02T01:24:00.835Z,899.2
2023-01-02T01:25:00.654Z,899.2
2023-01-02T01:26:00.604Z,899.2
2023-01-02T01:27:00.608Z,899.3
2023-01-02T01:28:00.649Z,899.2
2023-01-02T01:29:00.655Z,899.3
2023-01-02T01:30:00.754Z,899.2
2023-01-02T01:31:00.683Z,899.2
2023-01-02T01:32:00.835Z,899.2
2023-01-02T01:33:00.686Z,899.3
2023-01-02T01:34:00.699Z,899.2
2023-01-02T01:35:00.608Z,899.3
2023-01-02T01:36:00.683Z,899.3
2023-01-02T01:37:00.623Z,899.2
2023-01-02T01:38:00.606Z,899.2
2023-01-02T01:39:00.574Z,899.3
2023-01-02T01:40:00.625Z,899.3
2023-01-02T01:41:00.631Z,899.2
2023-01-02T01:42:00.736Z,899.2
2023-01-02T01:43:01.015Z,899.2
2023-01-02T01:44:00.590Z,899.3
2023-01-02T01:45:00.606Z,899.2
2023-01-02T01:46:00.645Z,899.3
2023-01-02T01:47:00.728Z,899.3
2023-01-02T01:48:00.698Z,899.3
2023-01-02T01:49:00.621Z,899.3
2023-01-02T01:50:05.007Z,899.3
2023-01-02T01:51:00.603Z,899.3
2023-01-02T01:52:00.632Z,899.2
2023-01-02T01:53:00.651Z,899.3
2023-01-02T01:54:00.794Z,899.3
2023-01-02T01:55:00.598Z,899.2
2023-01-02T01:56:00.640Z,899.2
2023-01-02T01:57:00.661Z,899.3
2023-01-02T01:58:00.633Z,899.2
2023-01-02T01:59:00.598Z,899.3
2023-01-02T02:00:00.797Z,899.2
2023-01-02T02:01:00.674Z,899.3
2023-01-02T02:02:01.024Z,899.3
2023-01-02T02:03:00.851Z,899.3
2023-01-02T02:04:00.597Z,899.2
2023-01-02T02:05:00.678Z,899.2
2023-01-02T02:06:00.755Z,899.3
2023-01-02T02:07:00.637Z,899.2
2023-01-02T02:08:00.592Z,899.3
2023-01-02T02:09:00.569Z,899.3
2023-01-02T02:10:00.609Z,899.3
2023-01-02T02:11:00.571Z,899.3
2023-01-02T02:12:00.725Z,899.3
2023-01-02T02:13:00.568Z,899.3
2023-01-02T02:14:00.599Z,899.3
2023-01-02T02:15:00.604Z,899.3
2023-01-02T02:16:00.570Z,899.3
2023-01-02T02:17:00.611Z,899.3
2023-01-02T02:18:00.819Z,899.3
2023-01-02T02:19:00.604Z,899.3
2023-01-02T02:20:00.628Z,899.3
2023-01-02T02:21:00.639Z,899.3
2023-01-02T02:22:00.570Z,899.3
2023-01-02T02:23:00.569Z,899.3
2023-01-02T02:24:00.747Z,899.3
2023-01-02T02:25:00.616Z,899.3
2023-01-02T02:26:00.619Z,899.3
2023-01-02T02:27:00.594Z,899.3
2023-01-02T02:28:00.624Z,899.4
2023-01-02T02:29:00.592Z,899.3
2023-01-02T02:30:00.806Z,899.4
2023-01-02T02:31:00.595Z,899.3
2023-01-02T02:32:00.655Z,899.4
2023-01-02T02:33:00.794Z,899.4
2023-01-02T02:34:00.752Z,899.3
2023-01-02T02:35:00.575Z,899.3
2023-01-02T02:36:00.837Z,899.3
2023-01-02T02:37:00.600Z,899.3
2023-01-02T02:38:00.591Z,899.4
2023-01-02T02:39:00.588Z,899.4
2023-01-02T02:40:00.666Z,899.4
2023-01-02T02:41:00.591Z,899.4
2023-01-02T02:42:00.753Z,899.5
2023-01-02T02:43:00.573Z,899.4
2023-01-02T02:44:00.629Z,899.4
2023-01-02T02:45:00.650Z,899.4
2023-01-02T02:46:00.705Z,899.4
2023-01-02T02:47:00.602Z,899.4
2023-01-02T02:48:00.754Z,899.4
2023-01-02T02:49:00.735Z,899.4
2023-01-02T02:50:00.642Z,899.4
2023-01-02T02:51:00.627Z,899.5
2023-01-02T02:52:00.715Z,899.4
2023-01-02T02:53:00.601Z,899.5
2023-01-02T02:54:00.793Z,899.5
2023-01-02T02:55:00.628Z,899.5
2023-01-02T02:56:00.639Z,899.4
2023-01-02T02:57:00.673Z,899.4
2023-01-02T02:58:00.627Z,899.4
2023-01-02T02:59:00.612Z,899.5
2023-01-02T03:00:00.921Z,899.4
2023-01-02T03:01:00.701Z,899.5
2023-01-02T03:02:00.882Z,899.5
2023-01-02T03:03:00.700Z,899.4
2023-01-02T03:04:00.823Z,899.5
2023-01-02T03:05:00.636Z,899.5
2023-01-02T03:06:00.691Z,899.5
2023-01-02T03:07:00.575Z,899.5
2023-01-02T03:08:00.636Z,899.5
2023-01-02T03:09:00.634Z,899.5
2023-01-02T03:10:00.596Z,899.5
2023-01-02T03:11:00.599Z,899.5
2023-01-02T03:12:00.728Z,899.5
2023-01-02T03:13:00.636Z,899.5
2023-01-02T03:14:00.599Z,899.6
2023-01-02T03:15:00.627Z,899.6
2023-01-02T03:16:00.581Z,899.6
2023-01-02T03:17:00.720Z,899.6
2023-01-02T03:18:00.761Z,899.6
2023-01-02T03:19:00.743Z,899.7
2023-01-02T03:20:00.603Z,899.6
2023-01-02T03:21:00.571Z,899.6
2023-01-02T03:22:00.642Z,899.7
2023-01-02T03:23:00.614Z,899.7
2023-01-02T03:24:00.839Z,899.7
2023-01-02T03:25:00.602Z,899.7
2023-01-02T03:26:00.621Z,899.7
2023-01-02T03:27:00.596Z,899.7
2023-01-02T03:28:00.619Z,899.8
2023-01-02T03:29:00.605Z,899.8
2023-01-02T03:30:00.738Z,899.8
2023-01-02T03:31:00.664Z,899.8
2023-01-02T03:32:00.569Z,899.8
2023-01-02T03:33:00.585Z,899.8
2023-01-02T03:34:00.692Z,899.9
2023-01-02T03:35:00.566Z,899.8
2023-01-02T03:36:00.753Z,899.8
2023-01-02T03:37:00.601Z,899.8
2023-01-02T03:38:00.678Z,899.9
2023-01-02T03:39:00.698Z,899.8
2023-01-02T03:40:00.644Z,899.8
2023-01-02T03:41:00.626Z,899.8
2023-01-02T03:42:00.678Z,899.8
2023-01-02T03:43:00.664Z,899.8
2023-01-02T03:44:00.681Z,899.8
2023-01-02T03:45:00.694Z,899.8
2023-01-02T03:46:00.629Z,899.8
2023-01-02T03:47:00.626Z,899.8
2023-01-02T03:48:00.732Z,899.8
2023-01-02T03:49:00.726Z,899.8
2023-01-02T03:50:00.565Z,899.9
2023-01-02T03:51:00.577Z,899.8
2023-01-02T03:52:00.595Z,899.8
2023-01-02T03:53:00.608Z,899.9
2023-01-02T03:54:00.825Z,899.9
2023-01-02T03:55:00.632Z,899.9
2023-01-02T03:56:00.614Z,899.9
2023-01-02T03:57:00.612Z,899.9
2023-01-02T03:58:00.623Z,899.9
2023-01-02T03:59:00.612Z,899.9
2023-01-02T04:00:00.716Z,899.9
2023-01-02T04:01:00.620Z,899.9
2023-01-02T04:02:00.665Z,899.9
2023-01-02T04:03:00.625Z,899.9
2023-01-02T04:04:00.740Z,899.9
2023-01-02T04:05:00.633Z,899.9
2023-01-02T04:06:00.763Z,899.9
2023-01-02T04:07:00.596Z,900.0
2023-01-02T04:08:00.628Z,899.9
2023-01-02T04:09:00.605Z,900.0
2023-01-02T04:10:00.593Z,900.0
2023-01-02T04:11:00.663Z,900.0
2023-01-02T04:12:00.818Z,900.0
2023-01-02T04:13:00.714Z,900.0
2023-01-02T04:14:00.645Z,900.0
2023-01-02T04:15:00.626Z,900.0
2023-01-02T04:16:00.657Z,900.0
2023-01-02T04:17:00.599Z,900.0
2023-01-02T04:18:00.812Z,900.0
2023-01-02T04:19:00.676Z,900.0
2023-01-02T04:20:00.604Z,900.0
2023-01-02T04:21:00.606Z,900.1
2023-01-02T04:22:00.568Z,900.0
2023-01-02T04:23:00.644Z,900.1
2023-01-02T04:24:00.817Z,900.1
2023-01-02T04:25:00.628Z,900.1
2023-01-02T04:26:00.598Z,900.1
2023-01-02T04:27:00.579Z,900.2
2023-01-02T04:28:00.593Z,900.1
2023-01-02T04:29:00.658Z,900.1
2023-01-02T04:30:00.765Z,900.1
2023-01-02T04:31:00.684Z,900.1
2023-01-02T04:32:00.567Z,900.2
2023-01-02T04:33:00.635Z,900.1
2023-01-02T04:34:00.836Z,900.1
2023-01-02T04:35:00.751Z,900.1
2023-01-02T04:36:00.773Z,900.1
2023-01-02T04:37:00.671Z,900.1
2023-01-02T04:38:00.660Z,900.2
2023-01-02T04:39:00.656Z,900.2
2023-01-02T04:40:00.633Z,900.2
2023-01-02T04:41:00.661Z,900.1
2023-01-02T04:42:00.771Z,900.1
2023-01-02T04:43:00.602Z,900.2
2023-01-02T04:44:00.667Z,900.1
2023-01-02T04:45:00.679Z,900.1
2023-01-02T04:46:00.685Z,900.1
2023-01-02T04:47:00.682Z,900.1
2023-01-02T04:48:00.783Z,900.2
2023-01-02T04:49:00.630Z,900.2
2023-01-02T04:50:00.755Z,900.2
2023-01-02T04:51:00.602Z,900.2
2023-01-02T04:52:00.606Z,900.2
2023-01-02T04:53:00.628Z,900.2
2023-01-02T04:54:00.808Z,900.2
2023-01-02T04:55:00.634Z,900.2
2023-01-02T04:56:00.633Z,900.2
2023-01-02T04:57:00.579Z,900.2
2023-01-02T04:58:00.583Z,900.2
2023-01-02T04:59:00.607Z,900.2
2023-01-02T05:00:00.763Z,900.2
2023-01-02T05:01:00.602Z,900.1
2023-01-02T05:02:00.744Z,900.1
2023-01-02T05:03:00.614Z,900.1
2023-01-02T05:04:00.671Z,900.1
2023-01-02T05:05:00.765Z,900.2
2023-01-02T05:06:00.718Z,900.2
2023-01-02T05:07:00.660Z,900.2
2023-01-02T05:08:00.696Z,900.2
2023-01-02T05:09:00.634Z,900.2
2023-01-02T05:10:00.608Z,900.2
2023-01-02T05:11:00.604Z,900.2
2023-01-02T05:12:00.701Z,900.2
2023-01-02T05:13:00.698Z,900.2
2023-01-02T05:14:06.981Z,900.2
2023-01-02T05:15:00.598Z,900.2
2023-01-02T05:16:00.637Z,900.3
2023-01-02T05:17:00.610Z,900.3
2023-01-02T05:18:00.699Z,900.3
2023-01-02T05:19:00.575Z,900.3
2023-01-02T05:20:00.690Z,900.3
2023-01-02T05:21:00.632Z,900.2
2023-01-02T05:22:00.607Z,900.2
2023-01-02T05:23:00.598Z,900.3
2023-01-02T05:24:00.772Z,900.2
2023-01-02T05:25:00.649Z,900.3
2023-01-02T05:26:00.616Z,900.3
2023-01-02T05:27:00.611Z,900.3
2023-01-02T05:28:00.600Z,900.3
2023-01-02T05:29:00.678Z,900.3
2023-01-02T05:30:00.709Z,900.3
2023-01-02T05:31:00.722Z,900.4
2023-01-02T05:32:00.669Z,900.4
2023-01-02T05:33:00.647Z,900.4
2023-01-02T05:34:00.644Z,900.4
2023-01-02T05:35:00.745Z,900.4
2023-01-02T05:36:00.734Z,900.4
2023-01-02T05:37:00.641Z,900.4
2023-01-02T05:38:00.710Z,900.4
2023-01-02T05:39:00.681Z,900.4
2023-01-02T05:40:00.676Z,900.4
2023-01-02T05:41:00.706Z,900.5
2023-01-02T05:42:00.865Z,900.4
2023-01-02T05:43:00.628Z,900.5
2023-01-02T05:44:00.602Z,900.5
2023-01-02T05:45:00.621Z,900.5
2023-01-02T05:46:00.571Z,900.5
2023-01-02T05:47:00.575Z,900.5
2023-01-02T05:48:00.845Z,900.5
2023-01-02T05:49:00.630Z,900.5
2023-01-02T05:50:01.028Z,900.5
2023-01-02T05:51:00.619Z,900.5
2023-01-02T05:52:00.613Z,900.5
2023-01-02T05:53:00.631Z,900.5
2023-01-02T05:54:00.682Z,900.5
2023-01-02T05:55:00.631Z,900.5
2023-01-02T05:56:00.570Z,900.5
2023-01-02T05:57:00.606Z,900.5
2023-01-02T05:58:00.605Z,900.5
2023-01-02T05:59:00.574Z,900.5
2023-01-02T06:00:00.735Z,900.5
2023-01-02T06:01:00.633Z,900.5
2023-01-02T06:02:00.660Z,900.5
2023-01-02T06:03:00.754Z,900.5
2023-01-02T06:04:00.762Z,900.5
2023-01-02T06:05:00.760Z,900.5
2023-01-02T06:06:00.761Z,900.5
2023-01-02T06:07:00.652Z,900.5
2023-01-02T06:08:00.628Z,900.5
2023-01-02T06:09:00.627Z,900.5
2023-01-02T06:10:00.604Z,900.5
2023-01-02T06:11:00.631Z,900.5
2023-01-02T06:12:00.726Z,900.5
2023-01-02T06:13:00.712Z,900.5
2023-01-02T06:14:00.579Z,900.5
2023-01-02T06:15:00.607Z,900.6
2023-01-02T06:16:00.696Z,900.6
2023-01-02T06:17:00.652Z,900.6
2023-01-02T06:18:00.676Z,900.6
2023-01-02T06:19:00.608Z,900.6
2023-01-02T06:20:00.818Z,900.6
2023-01-02T06:21:00.703Z,900.6
2023-01-02T06:22:00.595Z,900.6
2023-01-02T06:23:00.597Z,900.6
2023-01-02T06:24:00.796Z,900.6
2023-01-02T06:25:00.681Z,900.6
2023-01-02T06:26:00.570Z,900.6
2023-01-02T06:27:00.619Z,900.6
2023-01-02T06:28:00.600Z,900.6
2023-01-02T06:29:00.599Z,900.6
2023-01-02T06:30:00.751Z,900.6
2023-01-02T06:31:00.598Z,900.6
2023-01-02T06:32:00.675Z,900.6
2023-01-02T06:33:00.578Z,900.6
2023-01-02T06:34:00.573Z,900.6
2023-01-02T06:35:00.611Z,900.6
2023-01-02T06:36:00.760Z,900.6
2023-01-02T06:37:04.544Z,900.6
2023-01-02T06:38:00.615Z,900.6
2023-01-02T06:39:00.630Z,900.6
2023-01-02T06:40:00.572Z,900.6
2023-01-02T06:41:00.602Z,900.6
2023-01-02T06:42:00.730Z,900.6
2023-01-02T06:43:00.660Z,900.6
2023-01-02T06:44:00.628Z,900.6
2023-01-02T06:45:00.703Z,900.6
2023-01-02T06:46:00.663Z,900.6
2023-01-02T06:47:00.572Z,900.6
2023-01-02T06:48:00.740Z,900.6
2023-01-02T06:49:00.654Z,900.6
2023-01-02T06:50:00.672Z,900.5
2023-01-02T06:51:00.851Z,900.6
2023-01-02T06:52:00.744Z,900.6
2023-01-02T06:53:00.569Z,900.6
2023-01-02T06:54:00.755Z,900.6
2023-01-02T06:55:00.573Z,900.6
2023-01-02T06:56:00.634Z,900.6
2023-01-02T06:57:00.601Z,900.6
2023-01-02T06:58:04.857Z,900.6
2023-01-02T06:59:00.597Z,900.6
2023-01-02T07:00:00.697Z,900.6
2023-01-02T07:01:00.695Z,900.6
2023-01-02T07:02:00.734Z,900.6
2023-01-02T07:03:00.644Z,900.6
2023-01-02T07:04:00.646Z,900.6
2023-01-02T07:05:00.597Z,900.6
2023-01-02T07:06:00.861Z,900.5
2023-01-02T07:07:00.683Z,900.6
2023-01-02T07:08:00.579Z,900.6
2023-01-02T07:09:00.601Z,900.6
2023-01-02T07:10:00.580Z,900.6
2023-01-02T07:11:00.601Z,900.6
2023-01-02T07:12:00.740Z,900.6
2023-01-02T07:13:00.611Z,900.6
2023-01-02T07:14:00.608Z,900.6
2023-01-02T07:15:00.642Z,900.6
2023-01-02T07:16:00.598Z,900.6
2023-01-02T07:17:00.655Z,900.6
2023-01-02T07:18:00.768Z,900.6
2023-01-02T07:19:00.655Z,900.6
2023-01-02T07:20:02.297Z,900.7
2023-01-02T07:21:00.756Z,900.7
2023-01-02T07:22:00.832Z,900.7
2023-01-02T07:23:00.687Z,900.7
2023-01-02T07:24:00.958Z,900.7
2023-01-02T07:25:00.621Z,900.6
2023-01-02T07:26:00.641Z,900.6
2023-01-02T07:27:00.620Z,900.7
2023-01-02T07:28:00.651Z,900.6
2023-01-02T07:29:00.634Z,900.6
2023-01-02T07:30:00.761Z,900.6
2023-01-02T07:31:00.761Z,900.6
2023-01-02T07:32:00.670Z,900.6
2023-01-02T07:33:00.682Z,900.6
2023-01-02T07:34:00.609Z,900.6
2023-01-02T07:35:00.629Z,900.6
2023-01-02T07:36:00.822Z,900.5
2023-01-02T07:37:00.898Z,900.6
2023-01-02T07:38:00.611Z,900.6
2023-01-02T07:39:00.610Z,900.6
2023-01-02T07:40:00.699Z,900.6
2023-01-02T07:41:00.675Z,900.5
2023-01-02T07:42:00.737Z,900.5
2023-01-02T07:43:00.614Z,900.5
2023-01-02T07:44:00.596Z,900.5
2023-01-02T07:45:00.725Z,900.5
2023-01-02T07:46:00.650Z,900.5
2023-01-02T07:47:00.574Z,900.5
2023-01-02T07:48:00.778Z,900.5
2023-01-02T07:49:00.596Z,900.5
2023-01-02T07:50:00.651Z,900.5
2023-01-02T07:51:00.630Z,900.5
2023-01-02T07:52:00.757Z,900.5
2023-01-02T07:53:00.632Z,900.5
2023-01-02T07:54:00.766Z,900.5
2023-01-02T07:55:00.727Z,900.5
2023-01-02T07:56:00.941Z,900.5
2023-01-02T07:57:01.020Z,900.4
2023-01-02T07:58:00.904Z,900.4
2023-01-02T07:59:00.911Z,900.4
2023-01-02T08:00:00.831Z,900.4
2023-01-02T08:01:05.453Z,900.4
2023-01-02T08:02:00.937Z,900.4
2023-01-02T08:03:00.636Z,900.3
2023-01-02T08:04:01.030Z,900.3
2023-01-02T08:05:00.923Z,900.3
2023-01-02T08:06:00.847Z,900.3
2023-01-02T08:07:00.718Z,900.3
2023-01-02T08:08:00.603Z,900.3
2023-01-02T08:09:00.633Z,900.3
2023-01-02T08:10:00.692Z,900.3
2023-01-02T08:11:00.606Z,900.3
2023-01-02T08:12:00.855Z,900.3
2023-01-02T08:13:00.636Z,900.2
2023-01-02T08:14:00.701Z,900.2
2023-01-02T08:15:00.578Z,900.2
2023-01-02T08:16:00.662Z,900.2
2023-01-02T08:17:00.856Z,900.2
2023-01-02T08:18:00.721Z,900.2
2023-01-02T08:19:00.628Z,900.2
2023-01-02T08:20:07.149Z,900.2
2023-01-02T08:21:00.614Z,900.2
2023-01-02T08:22:00.730Z,900.1
2023-01-02T08:23:00.650Z,900.1
2023-01-02T08:24:00.692Z,900.1
2023-01-02T08:25:00.611Z,900.1
2023-01-02T08:26:00.599Z,900.1
2023-01-02T08:27:00.567Z,900.1
2023-01-02T08:28:00.624Z,900.1
2023-01-02T08:29:00.620Z,900.1
2023-01-02T08:30:00.786Z,900.1
2023-01-02T08:31:00.731Z,900.1
2023-01-02T08:32:00.621Z,900.1
2023-01-02T08:33:00.595Z,900.0
2023-01-02T08:34:00.635Z,900.0
2023-01-02T08:35:00.644Z,900.0
2023-01-02T08:36:00.699Z,900.0
2023-01-02T08:37:00.656Z,900.0
2023-01-02T08:38:00.618Z,900.0
2023-01-02T08:39:00.698Z,900.0
2023-01-02T08:40:00.577Z,900.0
2023-01-02T08:41:00.609Z,900.0
2023-01-02T08:42:00.769Z,899.9
2023-01-02T08:43:00.647Z,899.9
2023-01-02T08:44:00.568Z,899.9
2023-01-02T08:45:00.645Z,899.9
2023-01-02T08:46:00.676Z,899.9
2023-01-02T08:47:00.570Z,899.9
2023-01-02T08:48:00.880Z,899.9
2023-01-02T08:49:00.612Z,899.9
2023-01-02T08:50:00.579Z,899.9
2023-01-02T08:51:00.601Z,899.8
2023-01-02T08:52:00.804Z,899.8
2023-01-02T08:53:00.679Z,899.8
2023-01-02T08:54:00.686Z,899.8
2023-01-02T08:55:00.602Z,899.8
2023-01-02T08:56:00.600Z,899.8
2023-01-02T08:57:00.625Z,899.8
2023-01-02T08:58:00.614Z,899.8
2023-01-02T08:59:00.740Z,899.8
2023-01-02T09:00:00.873Z,899.8
2023-01-02T09:01:00.618Z,899.8
2023-01-02T09:02:00.742Z,899.8
2023-01-02T09:03:00.840Z,899.8
2023-01-02T09:04:03.700Z,899.8
2023-01-02T09:05:00.613Z,899.7
2023-01-02T09:06:00.742Z,899.7
2023-01-02T09:07:00.632Z,899.7
2023-01-02T09:08:00.929Z,899.7
2023-01-02T09:09:03.206Z,899.7
2023-01-02T09:10:00.765Z,899.6
2023-01-02T09:11:00.569Z,899.6
2023-01-02T09:12:00.839Z,899.6
2023-01-02T09:13:00.632Z,899.6
2023-01-02T09:14:00.663Z,899.6
2023-01-02T09:15:00.602Z,899.5
2023-01-02T09:16:00.646Z,899.5
2023-01-02T09:17:00.644Z,899.5
2023-01-02T09:18:00.824Z,899.5
2023-01-02T09:19:00.608Z,899.5
2023-01-02T09:20:00.607Z,899.5
2023-01-02T09:21:00.574Z,899.5
2023-01-02T09:22:00.662Z,899.5
2023-01-02T09:23:00.747Z,899.5
2023-01-02T09:24:00.694Z,899.5
2023-01-02T09:25:00.649Z,899.5
2023-01-02T09:26:00.612Z,899.4
2023-01-02T09:27:00.652Z,899.4
2023-01-02T09:28:00.639Z,899.4
2023-01-02T09:29:00.603Z,899.4
2023-01-02T09:30:00.742Z,899.4
2023-01-02T09:31:00.671Z,899.4
2023-01-02T09:32:00.642Z,899.4
2023-01-02T09:33:00.663Z,899.4
2023-01-02T09:34:00.653Z,899.4
2023-01-02T09:35:00.603Z,899.4
2023-01-02T09:36:00.779Z,899.4
2023-01-02T09:37:00.639Z,899.4
2023-01-02T09:38:01.030Z,899.3
2023-01-02T09:39:00.568Z,899.3
2023-01-02T09:40:00.625Z,899.3
2023-01-02T09:41:00.886Z,899.3
2023-01-02T09:42:00.780Z,899.2
2023-01-02T09:43:00.787Z,899.2
2023-01-02T09:44:00.694Z,899.2
2023-01-02T09:45:06.433Z,899.1
2023-01-02T09:46:00.704Z,899.1
2023-01-02T09:47:00.702Z,899.1
2023-01-02T09:48:01.003Z,899.1
2023-01-02T09:49:00.865Z,899.1
2023-01-02T09:50:00.734Z,899.1
2023-01-02T09:51:07.160Z,899.0
2023-01-02T09:52:00.636Z,899.1
2023-01-02T09:53:00.983Z,899.1
2023-01-02T09:54:00.972Z,899.1
2023-01-02T09:55:00.851Z,899.0
2023-01-02T09:56:00.838Z,899.0
2023-01-02T09:57:00.861Z,898.9
2023-01-02T09:58:00.968Z,898.9
2023-01-02T09:59:00.881Z,898.9
2023-01-02T10:00:00.788Z,898.9
2023-01-02T10:01:00.934Z,898.9
2023-01-02T10:02:00.918Z,898.9
2023-01-02T10:03:05.802Z,898.9
2023-01-02T10:04:00.631Z,898.9
2023-01-02T10:05:00.676Z,898.9
2023-01-02T10:06:00.798Z,898.9
2023-01-02T10:07:00.625Z,898.9
2023-01-02T10:08:00.777Z,898.9
2023-01-02T10:09:00.768Z,898.8
2023-01-02T10:10:00.715Z,898.9
2023-01-02T10:11:00.619Z,898.9
2023-01-02T10:12:00.759Z,898.9
2023-01-02T10:13:00.665Z,898.9
2023-01-02T10:14:20.538Z,898.9
2023-01-02T10:15:00.581Z,898.8
2023-01-02T10:16:00.700Z,898.8
2023-01-02T10:17:00.628Z,898.8
2023-01-02T10:18:00.838Z,898.8
2023-01-02T10:19:00.750Z,898.8
2023-01-02T10:20:00.678Z,898.8
2023-01-02T10:21:00.612Z,898.8
2023-01-02T10:22:00.807Z,898.8
2023-01-02T10:23:00.864Z,898.8
2023-01-02T10:24:00.865Z,898.7
2023-01-02T10:25:00.792Z,898.7
2023-01-02T10:26:00.647Z,898.7
2023-01-02T10:27:00.657Z,898.7
2023-01-02T10:28:00.667Z,898.7
2023-01-02T10:29:00.725Z,898.6
2023-01-02T10:30:00.870Z,898.7
2023-01-02T10:31:05.529Z,898.7
2023-01-02T10:32:00.699Z,898.7
2023-01-02T10:33:00.655Z,898.7
2023-01-02T10:34:00.688Z,898.7
2023-01-02T10:35:00.899Z,898.7
2023-01-02T10:36:01.218Z,898.7
2023-01-02T10:37:04.486Z,898.7
2023-01-02T10:38:00.872Z,898.7
2023-01-02T10:39:00.819Z,898.7
2023-01-02T10:40:01.058Z,898.7
2023-01-02T10:41:00.955Z,898.7
2023-01-02T10:42:00.753Z,898.6
2023-01-02T10:43:00.687Z,898.6
2023-01-02T10:44:00.665Z,898.6
2023-01-02T10:45:00.751Z,898.6
2023-01-02T10:46:00.660Z,898.6
2023-01-02T10:47:00.736Z,898.6
2023-01-02T10:48:00.750Z,898.6
2023-01-02T10:49:00.617Z,898.6
2023-01-02T10:50:00.683Z,898.6
2023-01-02T10:51:00.600Z,898.6
2023-01-02T10:52:00.634Z,898.7
2023-01-02T10:53:00.635Z,898.7
2023-01-02T10:54:00.792Z,898.7
2023-01-02T10:55:01.003Z,898.7
2023-01-02T10:56:00.842Z,898.7
2023-01-02T10:57:00.610Z,898.7
2023-01-02T10:58:00.582Z,898.7
2023-01-02T10:59:00.643Z,898.6
2023-01-02T11:00:00.855Z,898.6
2023-01-02T11:01:00.948Z,898.6
2023-01-02T11:02:00.874Z,898.6
2023-01-02T11:03:00.760Z,898.6
2023-01-02T11:04:00.749Z,898.6
2023-01-02T11:05:00.614Z,898.6
2023-01-02T11:06:23.174Z,898.6
2023-01-02T11:07:00.631Z,898.6
2023-01-02T11:08:00.661Z,898.6
2023-01-02T11:09:00.797Z,898.6
2023-01-02T11:10:00.609Z,898.6
2023-01-02T11:11:00.725Z,898.6
2023-01-02T11:12:00.853Z,898.5
2023-01-02T11:13:00.605Z,898.5
2023-01-02T11:14:00.623Z,898.5
2023-01-02T11:15:00.679Z,898.5
2023-01-02T11:16:00.941Z,898.5
2023-01-02T11:17:00.627Z,898.5
2023-01-02T11:18:00.810Z,898.5
2023-01-02T11:19:00.628Z,898.5
2023-01-02T11:20:00.646Z,898.5
2023-01-02T11:21:00.577Z,898.5
2023-01-02T11:22:00.605Z,898.5
2023-01-02T11:23:00.627Z,898.5
2023-01-02T11:24:00.902Z,898.5
2023-01-02T11:25:01.381Z,898.5
2023-01-02T11:26:00.737Z,898.5
2023-01-02T11:27:00.694Z,898.5
2023-01-02T11:28:00.647Z,898.5
2023-01-02T11:29:00.584Z,898.5
2023-01-02T11:30:00.841Z,898.5
2023-01-02T11:31:00.624Z,898.5
2023-01-02T11:32:00.959Z,898.5
2023-01-02T11:33:00.624Z,898.5
2023-01-02T11:34:00.576Z,898.5
2023-01-02T11:35:00.656Z,898.5
2023-01-02T11:36:00.752Z,898.5
2023-01-02T11:37:00.628Z,898.5
2023-01-02T11:38:00.644Z,898.5
2023-01-02T11:39:00.633Z,898.5
2023-01-02T11:40:00.588Z,898.5
2023-01-02T11:41:00.628Z,898.5
2023-01-02T11:42:00.775Z,898.5
2023-01-02T11:43:00.775Z,898.5
2023-01-02T11:44:00.628Z,898.5
2023-01-02T11:45:00.687Z,898.5
2023-01-02T11:46:00.642Z,898.5
2023-01-02T11:47:00.614Z,898.5
2023-01-02T11:48:00.812Z,898.5
2023-01-02T11:49:00.668Z,898.5
2023-01-02T11:50:00.683Z,898.5
2023-01-02T11:51:00.632Z,898.5
2023-01-02T11:52:00.642Z,898.5
2023-01-02T11:53:00.657Z,898.5
2023-01-02T11:54:00.764Z,898.5
2023-01-02T11:55:00.649Z,898.5
2023-01-02T11:56:00.570Z,898.5
2023-01-02T11:57:00.768Z,898.5
2023-01-02T11:58:00.590Z,898.5
2023-01-02T11:59:00.569Z,898.5
2023-01-02T12:00:00.936Z,898.5
2023-01-02T12:01:00.599Z,898.5
2023-01-02T12:02:00.785Z,898.5
2023-01-02T12:03:00.958Z,898.5
2023-01-02T12:04:00.711Z,898.5
2023-01-02T12:05:00.608Z,898.5
2023-01-02T12:06:00.790Z,898.5
2023-01-02T12:07:00.805Z,898.5
2023-01-02T12:08:00.875Z,898.5
2023-01-02T12:09:00.696Z,898.5
2023-01-02T12:10:00.632Z,898.5
2023-01-02T12:11:00.601Z,898.5
2023-01-02T12:12:00.850Z,898.5
2023-01-02T12:13:00.826Z,898.5
2023-01-02T12:14:00.626Z,898.5
2023-01-02T12:15:00.594Z,898.5
2023-01-02T12:16:00.756Z,898.5
2023-01-02T12:17:00.879Z,898.5
2023-01-02T12:18:00.797Z,898.5
2023-01-02T12:19:00.611Z,898.5
2023-01-02T12:20:05.448Z,898.5
2023-01-02T12:21:00.584Z,898.5
2023-01-02T12:22:00.631Z,898.5
2023-01-02T12:23:00.652Z,898.5
2023-01-02T12:24:00.797Z,898.5
2023-01-02T12:25:00.657Z,898.5
2023-01-02T12:26:05.590Z,898.5
2023-01-02T12:27:00.742Z,898.5
2023-01-02T12:28:00.765Z,898.5
2023-01-02T12:29:00.733Z,898.5
2023-01-02T12:30:00.789Z,898.5
2023-01-02T12:31:00.614Z,898.5
2023-01-02T12:32:06.173Z,898.5
2023-01-02T12:33:00.610Z,898.5
2023-01-02T12:34:00.663Z,898.6
2023-01-02T12:35:00.614Z,898.6
2023-01-02T12:36:00.833Z,898.6
2023-01-02T12:37:00.596Z,898.6
2023-01-02T12:38:00.767Z,898.6
2023-01-02T12:39:00.727Z,898.6
2023-01-02T12:40:00.604Z,898.6
2023-01-02T12:41:00.573Z,898.6
2023-01-02T12:42:02.401Z,898.6
2023-01-02T12:43:00.615Z,898.6
2023-01-02T12:44:00.759Z,898.6
2023-01-02T12:45:00.616Z,898.6
2023-01-02T12:46:00.686Z,898.5
2023-01-02T12:47:00.671Z,898.5
2023-01-02T12:48:00.714Z,898.5
2023-01-02T12:49:00.604Z,898.5
2023-01-02T12:50:00.656Z,898.5
2023-01-02T12:51:00.604Z,898.5
2023-01-02T12:52:00.609Z,898.5